Aérodrome :
LOGIN :

S'inscrire | Disclaimer

   EN    FR    IT 

 










Légende :    VFR   VFR Marginal   IFR   IFR Intensif   IFR Très Intensif
Visi : 
Plafond : 
>= 8 km
>= 3000ft
5 à 8 km
1000 à 3000 ft
1500m à 5 km
500 à 1000 ft
800 à 1500m
200 à 500 ft
< 800m
< 200 ft
Symboles :   Orages  Brouillard  Fortes neiges  Fortes précipitations  Vent > 20 kt
SIGMETs :   Divers  Orages  Givrage  Turbulence  Onde Orograph.  Cendres Volcan.






- Altitude de l'aérodrome : 1247 ft
- Code IATA : PRG


LKPR - Praha Ruzyne

DERNIER METAR :
  • 160730Z 13005KT 080V160 CAVOK 06/04 Q1013 NOSIG

METARs EXPIRÉS :
  • 160700Z 14007KT 9999 FEW035 06/03 Q1013 NOSIG
  • 160630Z 14005KT 9999 FEW035 06/04 Q1012 NOSIG
  • 160600Z 14005KT CAVOK 06/04 Q1012 NOSIG
  • 160530Z 14005KT 9999 -RA NSC 06/03 Q1012 NOSIG
  • 160523Z 14006KT 9999 -RA NSC 06/03 Q1013 RMK REG QNH 1010
  • 160500Z 14006KT CAVOK 06/03 Q1013 NOSIG

TAF TAF LKPR
Valide du 16 à 06h jusqu'au 17 à 12h UTC


160500Z 1606/1712 17008KT CAVOK
BECMG 1620/1622 VRB02KT 5000 BR OVC008
BECMG 1700/1702 1200 BR OVC004
TEMPO 1702/1708 0700 FG BKN002
BECMG 1710/1712 4000 BR OVC007



MET'MAP, la Météo Aéronautique d'un coup d'oeil ! - Copyright ORBIFLY Décembre 2007 - Disclaimer

ORBIFLY MET'MAP TEAM :

Programmation & Développement : Alexandra Zaïnal
Sur une idée originale de : Baudouin d'Aumeries
Assistance à la programmation : Marc-Olivier Méhu
Soutien technique & logistique : Manuel Goepfert

Contact : metmap@orbifly.com




SOURCES & CREDITS :

   NOAA